KPLN/PLN METAR and TAF weather

Enter ICAO airport designator
Station Type Date Time Source
KPLN METAR 2021/06/24 04:54 UTC NOAA

KPLN 240454Z AUTO 20011G16KT 10SM BKN050 OVC060 21/10 A2993 RMK AO2 SLP131 T02110100 402670039


Station Type Date Time Source
KPLN Decoded METAR 2021/06/24 04:54 UTC NOAA

PELLSTON REGIONAL AIRPORT, MI, United States (KPLN) 45-34N 084-48W 217M
Jun 24, 2021 - 12:54 AM EDT / 2021.06.24 0454 UTC
Wind: from the SSW (200 degrees) at 13 MPH (11 KT) gusting to 18 MPH (16 KT):0
Visibility: 10 mile(s):0
Sky conditions: overcast
Temperature: 70.0 F (21.1 C)
Dew Point: 50.0 F (10.0 C)
Relative Humidity: 49%
Pressure (altimeter): 29.93 in. Hg (1013 hPa)
ob: KPLN 240454Z AUTO 20011G16KT 10SM BKN050 OVC060 21/10 A2993 RMK AO2 SLP131 T02110100 402670039
cycle: 5

Station Type Date Time Source
KPLN TAF 2021/06/24 06:22 UTC NOAA

TAF KPLN 240520Z 2406/2506 19012KT P6SM BKN040 WS020/22045KT
FM241200 21013G22KT P6SM VCSH BKN040
FM250000 21008KT P6SM OVC030

Example: see airport list